createdAt,value
2019-04-03T00:01:04.953Z,15.70
2019-04-03T00:03:34.202Z,15.60
2019-04-03T00:06:05.553Z,15.50
2019-04-03T00:08:34.909Z,15.50
2019-04-03T00:11:04.589Z,15.40
2019-04-03T00:13:33.198Z,15.30
2019-04-03T00:16:21.309Z,15.30
2019-04-03T00:18:49.901Z,15.40
2019-04-03T00:21:19.758Z,15.40
2019-04-03T00:23:48.686Z,15.40
2019-04-03T00:26:17.252Z,15.40
2019-04-03T00:28:45.835Z,15.40
2019-04-03T00:31:14.483Z,15.40
2019-04-03T00:34:02.383Z,15.40
2019-04-03T00:36:31.136Z,15.30
2019-04-03T00:38:59.842Z,15.40
2019-04-03T00:41:28.482Z,15.40
2019-04-03T00:43:57.029Z,15.30
2019-04-03T00:46:25.584Z,15.30
2019-04-03T00:48:55.858Z,15.30
2019-04-03T00:51:27.005Z,15.30
2019-04-03T00:53:55.890Z,15.20
2019-04-03T00:56:26.697Z,15.10
2019-04-03T00:58:55.719Z,15.10
2019-04-03T01:01:26.445Z,15.00
2019-04-03T01:03:54.972Z,15.00
2019-04-03T01:06:23.722Z,15.00
2019-04-03T01:08:52.286Z,14.90
2019-04-03T01:11:20.913Z,14.90
2019-04-03T01:13:49.655Z,14.90
2019-04-03T01:16:18.215Z,14.90
2019-04-03T01:18:46.765Z,14.90
2019-04-03T01:21:15.589Z,14.90
2019-04-03T01:23:44.110Z,14.90
2019-04-03T01:26:12.710Z,14.90
2019-04-03T01:28:41.972Z,14.80
2019-04-03T01:31:14.179Z,14.80
2019-04-03T01:33:41.754Z,14.70
2019-04-03T01:36:10.342Z,14.80
2019-04-03T01:38:38.919Z,14.80
2019-04-03T01:41:07.466Z,14.80
2019-04-03T01:43:36.019Z,14.70
2019-04-03T01:46:04.748Z,14.80
2019-04-03T01:48:33.400Z,14.80
2019-04-03T01:51:02.106Z,14.80
2019-04-03T01:53:32.189Z,14.90
2019-04-03T01:56:01.003Z,14.90
2019-04-03T01:58:29.592Z,14.90
2019-04-03T02:00:58.184Z,14.90
2019-04-03T02:03:26.902Z,14.70
2019-04-03T02:05:55.787Z,14.70
2019-04-03T02:08:24.383Z,14.70
2019-04-03T02:10:53.128Z,14.60
2019-04-03T02:13:22.037Z,14.70
2019-04-03T02:15:52.572Z,14.60
2019-04-03T02:18:21.168Z,14.60
2019-04-03T02:20:49.841Z,14.50
2019-04-03T02:23:18.406Z,14.60
2019-04-03T02:25:47.299Z,14.60
2019-04-03T02:28:15.924Z,14.60
2019-04-03T02:30:46.112Z,14.60
2019-04-03T02:33:15.108Z,14.50
2019-04-03T02:35:43.967Z,14.50
2019-04-03T02:38:12.545Z,14.40
2019-04-03T02:40:41.401Z,14.40
2019-04-03T02:43:13.470Z,14.40
2019-04-03T02:45:40.752Z,14.40
2019-04-03T02:48:09.607Z,14.50
2019-04-03T02:50:38.742Z,14.50
2019-04-03T02:53:07.920Z,14.50
2019-04-03T02:55:39.342Z,14.60
2019-04-03T02:58:07.334Z,14.50
2019-04-03T03:00:36.214Z,14.40
2019-04-03T03:03:05.123Z,14.40
2019-04-03T03:05:34.374Z,14.40
2019-04-03T03:08:03.180Z,14.30
2019-04-03T03:10:33.315Z,14.20
2019-04-03T03:13:02.753Z,14.30
2019-04-03T03:15:35.685Z,14.30
2019-04-03T03:18:05.021Z,14.30
2019-04-03T03:20:38.526Z,14.40
2019-04-03T03:23:06.344Z,14.40
2019-04-03T03:25:35.804Z,14.40
2019-04-03T03:28:04.711Z,14.40
2019-04-03T03:30:43.458Z,14.40
2019-04-03T03:33:24.516Z,14.40
2019-04-03T03:35:42.048Z,14.30
2019-04-03T03:38:07.043Z,14.30
2019-04-03T03:40:37.247Z,14.30
2019-04-03T03:43:06.473Z,14.20
2019-04-03T03:45:35.774Z,14.20
2019-04-03T03:48:08.064Z,14.20
2019-04-03T03:50:36.991Z,14.20
2019-04-03T03:53:10.133Z,14.10
2019-04-03T03:55:37.973Z,14.10
2019-04-03T03:58:11.098Z,14.00
2019-04-03T04:00:38.105Z,14.00
2019-04-03T04:03:10.085Z,14.10
2019-04-03T04:05:37.478Z,14.10
2019-04-03T04:08:09.347Z,14.10
2019-04-03T04:10:38.941Z,14.20
2019-04-03T04:13:07.963Z,14.30
2019-04-03T04:15:57.546Z,14.20
2019-04-03T04:18:26.774Z,14.20
2019-04-03T04:20:55.912Z,14.20
2019-04-03T04:23:25.957Z,14.10
2019-04-03T04:25:55.412Z,14.10
2019-04-03T04:28:24.355Z,14.10
2019-04-03T04:30:53.312Z,14.20
2019-04-03T04:33:22.001Z,14.20
2019-04-03T04:35:52.467Z,14.40
2019-04-03T04:38:21.252Z,14.40
2019-04-03T04:40:49.959Z,14.40
2019-04-03T04:43:18.569Z,14.40
2019-04-03T04:45:47.150Z,14.40
2019-04-03T04:48:16.851Z,14.30
2019-04-03T04:50:46.227Z,14.40
2019-04-03T04:53:14.873Z,14.40
2019-04-03T04:55:43.458Z,14.30
2019-04-03T04:58:12.250Z,14.30
2019-04-03T05:00:40.938Z,14.30
2019-04-03T05:03:09.741Z,14.30
2019-04-03T05:05:38.629Z,14.30
2019-04-03T05:08:07.198Z,14.40
2019-04-03T05:10:36.906Z,14.40
2019-04-03T05:13:05.815Z,14.40
2019-04-03T05:15:34.583Z,14.20
2019-04-03T05:18:03.309Z,14.20
2019-04-03T05:20:32.310Z,14.20
2019-04-03T05:23:01.056Z,14.20
2019-04-03T05:25:30.398Z,14.20
2019-04-03T05:28:00.010Z,14.10
2019-04-03T05:30:33.416Z,14.00
2019-04-03T05:33:02.475Z,14.10
2019-04-03T05:35:31.224Z,14.00
2019-04-03T05:38:00.151Z,14.00
2019-04-03T05:40:28.949Z,14.10
2019-04-03T05:42:59.858Z,14.10
2019-04-03T05:45:28.191Z,14.10
2019-04-03T05:47:56.833Z,14.10
2019-04-03T05:50:26.428Z,14.10
2019-04-03T05:52:55.782Z,14.20
2019-04-03T05:55:24.540Z,14.10
2019-04-03T05:57:53.223Z,14.10
2019-04-03T06:00:21.915Z,14.10
2019-04-03T06:02:52.661Z,14.00
2019-04-03T06:05:20.782Z,14.10
2019-04-03T06:07:49.840Z,14.00
2019-04-03T06:10:18.671Z,14.00
2019-04-03T06:12:47.233Z,14.00
2019-04-03T06:15:16.341Z,14.00
2019-04-03T06:17:45.133Z,14.00
2019-04-03T06:20:14.095Z,14.10
2019-04-03T06:22:43.464Z,14.10
2019-04-03T06:25:13.724Z,14.10
2019-04-03T06:27:47.139Z,14.10
2019-04-03T06:30:19.789Z,14.20
2019-04-03T06:32:48.163Z,14.20
2019-04-03T06:35:17.294Z,14.20
2019-04-03T06:37:45.960Z,14.20
2019-04-03T06:40:15.380Z,14.30
2019-04-03T06:42:45.293Z,14.30
2019-04-03T06:45:16.015Z,14.40
2019-04-03T06:47:46.140Z,14.40
2019-04-03T06:50:17.372Z,14.50
2019-04-03T06:52:45.335Z,14.50
2019-04-03T06:55:14.092Z,14.50
2019-04-03T06:57:42.971Z,14.50
2019-04-03T07:00:17.713Z,14.60
2019-04-03T07:02:46.834Z,14.50
2019-04-03T07:05:16.716Z,14.50
2019-04-03T07:07:45.480Z,14.60
2019-04-03T07:10:24.804Z,14.60
2019-04-03T07:12:46.460Z,14.50
2019-04-03T07:15:16.323Z,14.50
2019-04-03T07:17:45.473Z,14.60
2019-04-03T07:20:33.471Z,14.70
2019-04-03T07:23:02.298Z,14.70
2019-04-03T07:25:33.958Z,14.70
2019-04-03T07:28:08.580Z,14.80
2019-04-03T07:30:36.764Z,14.80
2019-04-03T07:33:06.388Z,14.90
2019-04-03T07:35:35.632Z,15.00
2019-04-03T07:38:04.379Z,15.20
2019-04-03T07:40:33.256Z,15.30
2019-04-03T07:43:02.179Z,15.50
2019-04-03T07:45:32.725Z,15.60
2019-04-03T07:48:01.608Z,15.80
2019-04-03T07:50:49.640Z,15.80
2019-04-03T07:53:19.871Z,15.90
2019-04-03T07:55:48.832Z,16.00
2019-04-03T07:58:18.999Z,16.00
2019-04-03T08:00:48.355Z,16.10
2019-04-03T08:03:20.001Z,16.20
2019-04-03T08:05:49.499Z,16.30
2019-04-03T08:08:18.183Z,16.40
2019-04-03T08:10:47.166Z,16.50
2019-04-03T08:13:16.796Z,16.60
2019-04-03T08:15:45.606Z,16.70
2019-04-03T08:18:14.267Z,16.80
2019-04-03T08:20:42.993Z,16.80
2019-04-03T08:23:11.625Z,17.00
2019-04-03T08:25:42.392Z,17.00
2019-04-03T08:28:12.242Z,17.20
2019-04-03T08:30:41.144Z,17.20
2019-04-03T08:33:16.023Z,17.30
2019-04-03T08:35:41.388Z,17.40
2019-04-03T08:38:12.527Z,17.30
2019-04-03T08:40:41.943Z,17.40
2019-04-03T08:43:11.873Z,17.40
2019-04-03T08:45:42.077Z,17.40
2019-04-03T08:48:11.038Z,17.50
2019-04-03T08:50:42.697Z,17.60
2019-04-03T08:53:11.590Z,17.70
2019-04-03T08:55:40.430Z,17.70
2019-04-03T08:58:09.137Z,17.70
2019-04-03T09:00:37.848Z,17.80
2019-04-03T09:03:06.622Z,17.70
2019-04-03T09:05:35.532Z,17.70
2019-04-03T09:08:04.220Z,17.70
2019-04-03T09:10:36.485Z,17.80
2019-04-03T09:13:16.170Z,17.70
2019-04-03T09:15:34.292Z,17.70
2019-04-03T09:18:06.038Z,17.60
2019-04-03T09:20:35.396Z,17.60
2019-04-03T09:23:05.350Z,17.40
2019-04-03T09:25:34.135Z,17.40
2019-04-03T09:28:03.030Z,17.30
2019-04-03T09:30:31.892Z,17.10
2019-04-03T09:33:03.744Z,17.00
2019-04-03T09:35:33.242Z,16.90
2019-04-03T09:38:02.043Z,16.70
2019-04-03T09:40:30.922Z,16.60
2019-04-03T09:42:59.618Z,16.70
2019-04-03T09:45:30.217Z,16.60
2019-04-03T09:47:59.225Z,16.60
2019-04-03T09:50:28.217Z,16.60
2019-04-03T09:52:57.465Z,16.60
2019-04-03T09:55:28.463Z,16.60
2019-04-03T09:57:58.724Z,16.60
2019-04-03T10:00:29.220Z,16.50
2019-04-03T10:02:58.486Z,16.50
2019-04-03T10:05:28.938Z,16.50
2019-04-03T10:07:58.397Z,16.60
2019-04-03T10:10:28.692Z,16.70
2019-04-03T10:12:57.685Z,16.70
2019-04-03T10:15:27.272Z,16.70
2019-04-03T10:17:56.187Z,16.70
2019-04-03T10:20:25.295Z,16.80
2019-04-03T10:22:56.354Z,16.90
2019-04-03T10:25:24.366Z,16.90
2019-04-03T10:27:58.422Z,17.00
2019-04-03T10:30:27.432Z,17.00
2019-04-03T10:32:58.667Z,16.90
2019-04-03T10:35:26.636Z,17.00
2019-04-03T10:37:55.427Z,17.00
2019-04-03T10:40:24.981Z,17.10
2019-04-03T10:42:54.200Z,17.10
2019-04-03T10:45:22.958Z,17.20
2019-04-03T10:47:55.446Z,17.20
2019-04-03T10:50:23.973Z,17.30
2019-04-03T10:52:54.344Z,17.40
2019-04-03T10:55:23.054Z,17.40
2019-04-03T10:57:51.744Z,17.50
2019-04-03T11:00:22.067Z,17.50
2019-04-03T11:02:53.050Z,17.40
2019-04-03T11:05:22.042Z,17.40
2019-04-03T11:07:52.724Z,17.50
2019-04-03T11:10:23.442Z,17.60
2019-04-03T11:12:51.923Z,17.70
2019-04-03T11:15:21.287Z,17.80
2019-04-03T11:17:50.456Z,17.70
2019-04-03T11:20:19.595Z,17.80
2019-04-03T11:22:49.044Z,17.80
2019-04-03T11:25:18.327Z,17.80
2019-04-03T11:27:47.434Z,17.90
2019-04-03T11:30:23.803Z,17.90
2019-04-03T11:32:50.486Z,17.90
2019-04-03T11:35:22.079Z,17.90
2019-04-03T11:37:50.801Z,17.90
2019-04-03T11:40:19.910Z,17.90
2019-04-03T11:42:49.241Z,17.80
2019-04-03T11:45:20.447Z,17.80
2019-04-03T11:47:49.378Z,17.70
2019-04-03T11:50:18.686Z,17.70
2019-04-03T11:52:47.590Z,17.70
2019-04-03T11:55:17.789Z,17.70
2019-04-03T11:57:48.234Z,17.70
2019-04-03T12:00:21.053Z,17.70
2019-04-03T12:02:51.444Z,17.70
2019-04-03T12:05:21.060Z,17.70
2019-04-03T12:07:51.289Z,17.70
2019-04-03T12:10:24.647Z,17.90
2019-04-03T12:12:50.688Z,17.90
2019-04-03T12:15:21.811Z,17.90
2019-04-03T12:17:51.234Z,17.80
2019-04-03T12:20:20.573Z,17.70
2019-04-03T12:22:49.706Z,17.70
2019-04-03T12:25:18.594Z,17.70
2019-04-03T12:27:47.785Z,17.80
2019-04-03T12:30:17.739Z,17.80
2019-04-03T12:32:48.988Z,17.90
2019-04-03T12:35:17.604Z,17.90
2019-04-03T12:37:51.861Z,18.00
2019-04-03T12:40:20.573Z,18.10
2019-04-03T12:42:49.467Z,18.10
2019-04-03T12:45:25.721Z,18.10
2019-04-03T12:47:54.480Z,18.10
2019-04-03T12:50:26.838Z,18.10
2019-04-03T12:52:53.950Z,18.10
2019-04-03T12:55:22.974Z,18.10
2019-04-03T12:57:52.917Z,18.10
2019-04-03T13:00:23.606Z,18.10
2019-04-03T13:02:53.123Z,18.10
2019-04-03T13:05:22.364Z,18.20
2019-04-03T13:07:51.208Z,18.20
2019-04-03T13:10:20.619Z,18.30
2019-04-03T13:12:49.280Z,18.30
2019-04-03T13:15:18.727Z,18.30
2019-04-03T13:17:47.583Z,18.40
2019-04-03T13:20:16.783Z,18.30
2019-04-03T13:22:45.464Z,18.40
2019-04-03T13:25:14.746Z,18.40
2019-04-03T13:27:44.156Z,18.50
2019-04-03T13:30:15.540Z,18.60
2019-04-03T13:32:56.705Z,18.50
2019-04-03T13:35:16.343Z,18.50
2019-04-03T13:37:45.291Z,18.60
2019-04-03T13:40:14.846Z,18.50
2019-04-03T13:42:43.668Z,18.60
2019-04-03T13:45:12.977Z,18.60
2019-04-03T13:47:42.894Z,18.60
2019-04-03T13:50:12.886Z,18.60
2019-04-03T13:52:45.809Z,18.60
2019-04-03T13:55:12.149Z,18.60
2019-04-03T13:57:41.709Z,18.70
2019-04-03T14:00:19.701Z,18.70
2019-04-03T14:02:45.004Z,18.70
2019-04-03T14:05:11.972Z,18.70
2019-04-03T14:07:41.877Z,18.70
2019-04-03T14:10:12.133Z,18.60
2019-04-03T14:12:44.182Z,18.60
2019-04-03T14:15:11.611Z,18.50
2019-04-03T14:17:54.102Z,18.50
2019-04-03T14:20:16.454Z,18.60
2019-04-03T14:22:45.190Z,18.60
2019-04-03T14:25:20.956Z,18.70
2019-04-03T14:27:47.732Z,18.70
2019-04-03T14:30:37.285Z,18.70
2019-04-03T14:33:07.630Z,18.70
2019-04-03T14:35:48.812Z,18.70
2019-04-03T14:38:11.514Z,18.80
2019-04-03T14:40:43.062Z,18.70
2019-04-03T14:43:09.814Z,18.80
2019-04-03T14:45:39.742Z,18.70
2019-04-03T14:48:10.663Z,18.70
2019-04-03T14:50:39.681Z,18.70
2019-04-03T14:53:08.447Z,18.70
2019-04-03T14:55:48.194Z,18.80
2019-04-03T14:58:14.988Z,18.70
2019-04-03T15:00:46.748Z,18.70
2019-04-03T15:03:14.694Z,18.70
2019-04-03T15:05:44.914Z,18.80
2019-04-03T15:08:13.973Z,18.70
2019-04-03T15:10:43.136Z,18.60
2019-04-03T15:13:14.066Z,18.60
2019-04-03T15:15:42.437Z,18.60
2019-04-03T15:18:11.386Z,18.60
2019-04-03T15:20:40.317Z,18.60
2019-04-03T15:23:09.354Z,18.60
2019-04-03T15:25:38.509Z,18.40
2019-04-03T15:28:07.328Z,18.20
2019-04-03T15:30:36.254Z,18.10
2019-04-03T15:33:05.792Z,18.10
2019-04-03T15:35:47.081Z,18.10
2019-04-03T15:38:18.605Z,18.10
2019-04-03T15:40:47.892Z,18.10
2019-04-03T15:43:17.264Z,18.10
2019-04-03T15:45:47.026Z,18.00
2019-04-03T15:48:15.951Z,17.90
2019-04-03T15:50:46.048Z,17.70
2019-04-03T15:53:15.169Z,17.60
2019-04-03T15:55:44.688Z,17.50
2019-04-03T15:58:13.785Z,17.40
2019-04-03T16:00:43.301Z,17.30
2019-04-03T16:03:12.167Z,17.30
2019-04-03T16:05:42.213Z,17.20
2019-04-03T16:08:12.807Z,17.20
2019-04-03T16:10:41.561Z,17.10
2019-04-03T16:13:12.087Z,16.90
2019-04-03T16:15:41.017Z,16.80
2019-04-03T16:18:09.608Z,16.70
2019-04-03T16:20:38.231Z,16.60
2019-04-03T16:23:07.037Z,16.50
2019-04-03T16:25:35.944Z,16.30
2019-04-03T16:28:05.205Z,16.10
2019-04-03T16:30:35.496Z,15.90
2019-04-03T16:33:05.039Z,15.60
2019-04-03T16:35:34.797Z,15.40
2019-04-03T16:38:03.545Z,15.30
2019-04-03T16:40:35.192Z,15.00
2019-04-03T16:43:02.853Z,14.70
2019-04-03T16:45:31.547Z,14.30
2019-04-03T16:48:03.135Z,13.90
2019-04-03T16:50:31.747Z,13.70
2019-04-03T16:53:00.730Z,13.50
2019-04-03T16:55:29.428Z,13.40
2019-04-03T16:57:58.397Z,13.30
2019-04-03T17:00:27.497Z,13.20
2019-04-03T17:02:57.035Z,13.20
2019-04-03T17:05:25.854Z,13.20
2019-04-03T17:07:55.138Z,13.00
2019-04-03T17:10:24.607Z,13.00
2019-04-03T17:12:54.724Z,13.00
2019-04-03T17:15:23.663Z,13.00
2019-04-03T17:17:52.305Z,13.00
2019-04-03T17:20:22.512Z,13.00
2019-04-03T17:22:53.519Z,12.90
2019-04-03T17:25:21.848Z,12.70
2019-04-03T17:28:10.462Z,12.60
2019-04-03T17:30:58.580Z,12.50
2019-04-03T17:33:27.747Z,12.50
2019-04-03T17:35:56.509Z,12.40
2019-04-03T17:38:25.200Z,12.30
2019-04-03T17:40:53.825Z,12.40
2019-04-03T17:43:22.535Z,12.40
2019-04-03T17:45:51.224Z,12.40
2019-04-03T17:48:19.911Z,12.40
2019-04-03T17:50:50.134Z,12.20
2019-04-03T17:53:18.752Z,12.10
2019-04-03T17:55:47.365Z,12.30
2019-04-03T17:58:16.930Z,12.40
2019-04-03T18:00:47.312Z,12.40
2019-04-03T18:03:15.928Z,12.40
2019-04-03T18:05:44.549Z,12.30
2019-04-03T18:08:13.275Z,12.20
2019-04-03T18:10:42.634Z,12.20
2019-04-03T18:13:11.773Z,12.10
2019-04-03T18:15:40.361Z,12.20
2019-04-03T18:18:10.719Z,12.20
2019-04-03T18:20:51.542Z,12.10
2019-04-03T18:23:21.735Z,12.20
2019-04-03T18:26:10.009Z,12.20
2019-04-03T18:28:38.954Z,12.20
2019-04-03T18:31:07.623Z,12.10
2019-04-03T18:33:36.430Z,12.10
2019-04-03T18:36:05.625Z,12.00
2019-04-03T18:38:34.228Z,12.10
2019-04-03T18:41:04.101Z,12.10
2019-04-03T18:43:54.140Z,12.20
2019-04-03T18:46:32.076Z,12.20
2019-04-03T18:48:58.737Z,12.30
2019-04-03T18:51:23.829Z,12.20
2019-04-03T18:53:52.497Z,12.20
2019-04-03T18:56:21.096Z,12.20
2019-04-03T18:58:49.815Z,12.10
2019-04-03T19:01:20.147Z,12.10
2019-04-03T19:03:48.853Z,12.10
2019-04-03T19:06:17.689Z,12.10
2019-04-03T19:08:46.325Z,12.10
2019-04-03T19:11:15.030Z,12.20
2019-04-03T19:13:45.151Z,12.10
2019-04-03T19:16:19.555Z,12.10
2019-04-03T19:18:44.252Z,12.10
2019-04-03T19:21:24.106Z,12.10
2019-04-03T19:23:49.540Z,12.00
2019-04-03T19:26:14.316Z,11.80
2019-04-03T19:28:42.993Z,11.90
2019-04-03T19:31:11.566Z,11.90
2019-04-03T19:33:40.359Z,11.90
2019-04-03T19:36:09.083Z,11.90
2019-04-03T19:38:37.991Z,11.90
2019-04-03T19:41:06.561Z,11.90
2019-04-03T19:43:36.760Z,11.90
2019-04-03T19:46:05.477Z,11.90
2019-04-03T19:48:34.276Z,11.90
2019-04-03T19:51:03.501Z,11.80
2019-04-03T19:53:32.343Z,11.80
2019-04-03T19:56:01.021Z,11.90
2019-04-03T19:58:29.817Z,11.90
2019-04-03T20:00:58.346Z,11.80
2019-04-03T20:03:26.977Z,11.80
2019-04-03T20:05:55.609Z,11.80
2019-04-03T20:08:24.230Z,11.70
2019-04-03T20:10:52.780Z,11.70
2019-04-03T20:13:40.741Z,11.80
2019-04-03T20:16:09.352Z,11.80
2019-04-03T20:18:37.999Z,11.80
2019-04-03T20:21:06.699Z,11.90
2019-04-03T20:23:35.253Z,11.90
2019-04-03T20:26:04.721Z,11.90
2019-04-03T20:28:33.734Z,11.80
2019-04-03T20:31:03.751Z,11.90
2019-04-03T20:33:33.000Z,11.70
2019-04-03T20:36:01.710Z,11.70
2019-04-03T20:38:30.412Z,11.70
2019-04-03T20:40:59.236Z,11.80
2019-04-03T20:43:27.884Z,11.80
2019-04-03T20:45:56.783Z,11.90
2019-04-03T20:48:28.018Z,12.00
2019-04-03T20:50:55.615Z,11.90
2019-04-03T20:53:24.237Z,11.70
2019-04-03T20:55:52.791Z,11.80
2019-04-03T20:58:21.406Z,11.80
2019-04-03T21:01:00.325Z,11.80
2019-04-03T21:03:21.311Z,11.70
2019-04-03T21:05:50.090Z,11.70
2019-04-03T21:08:18.752Z,11.50
2019-04-03T21:10:47.423Z,11.70
2019-04-03T21:13:16.083Z,11.70
2019-04-03T21:15:45.605Z,11.60
2019-04-03T21:18:14.591Z,11.50
2019-04-03T21:20:43.359Z,11.50
2019-04-03T21:23:12.197Z,11.70
2019-04-03T21:25:40.884Z,11.80
2019-04-03T21:28:10.982Z,11.90
2019-04-03T21:30:39.884Z,11.90
2019-04-03T21:33:08.515Z,11.70
2019-04-03T21:35:37.262Z,11.80
2019-04-03T21:38:05.851Z,11.80
2019-04-03T21:40:34.595Z,11.90
2019-04-03T21:43:03.164Z,11.90
2019-04-03T21:45:31.831Z,11.80
2019-04-03T21:48:00.467Z,11.80
2019-04-03T21:50:29.069Z,11.90
2019-04-03T21:52:57.842Z,11.90
2019-04-03T21:55:26.472Z,12.00
2019-04-03T21:57:55.341Z,12.00
2019-04-03T22:00:37.272Z,12.00
2019-04-03T22:03:06.925Z,12.00
2019-04-03T22:05:35.683Z,11.80
2019-04-03T22:08:04.753Z,11.90
2019-04-03T22:10:33.731Z,11.90
2019-04-03T22:13:02.485Z,11.80
2019-04-03T22:15:31.044Z,11.70
2019-04-03T22:17:59.716Z,11.90
2019-04-03T22:20:29.592Z,12.00
2019-04-03T22:22:58.985Z,12.10
2019-04-03T22:25:27.540Z,12.00
2019-04-03T22:27:56.125Z,11.90
2019-04-03T22:30:24.774Z,11.80
2019-04-03T22:32:54.016Z,11.80
2019-04-03T22:35:23.636Z,11.90
2019-04-03T22:37:52.217Z,11.90
2019-04-03T22:40:20.884Z,12.10
2019-04-03T22:42:49.438Z,12.10
2019-04-03T22:45:20.039Z,12.00
2019-04-03T22:47:48.404Z,12.00
2019-04-03T22:50:17.099Z,12.10
2019-04-03T22:53:05.169Z,12.00
2019-04-03T22:55:36.042Z,11.90
2019-04-03T22:58:04.865Z,11.90
2019-04-03T23:00:33.475Z,11.90
2019-04-03T23:03:02.976Z,11.80
2019-04-03T23:05:32.608Z,11.80
2019-04-03T23:08:01.320Z,11.70
2019-04-03T23:10:30.260Z,11.70
2019-04-03T23:12:59.204Z,11.80
2019-04-03T23:15:27.766Z,11.80
2019-04-03T23:17:56.476Z,11.70
2019-04-03T23:20:25.139Z,11.60
2019-04-03T23:22:56.330Z,11.60
2019-04-03T23:25:25.084Z,11.60
2019-04-03T23:27:53.709Z,11.50
2019-04-03T23:30:22.428Z,11.40
2019-04-03T23:32:51.110Z,11.30
2019-04-03T23:35:20.507Z,11.40
2019-04-03T23:37:49.908Z,11.40
2019-04-03T23:40:18.529Z,11.40
2019-04-03T23:42:47.212Z,11.40
2019-04-03T23:45:16.920Z,11.40
2019-04-03T23:47:47.063Z,11.40
2019-04-03T23:50:15.968Z,11.60
2019-04-03T23:52:44.610Z,11.60
2019-04-03T23:55:13.323Z,11.60
2019-04-03T23:57:41.921Z,11.60
